Time;durP1;ratioP1;P1;durP2;ratioP2;P2;SDS_P1;SDS_P2;PMS_P1;PMS_P2;Temp;Humidity;BMP_temperature;BMP_pressure;BME280_temperature;BME280_humidity;BME280_pressure;Samples;Min_cycle;Max_cycle;Signal;HPM_P1;HPM_P2
2023/07/28 00:00:17;;;;;;;7.60;4.93;;;17.80;99.90;;;;;;5068766;28;20428;-76
2023/07/28 00:03:03;;;;;;;9.77;5.37;;;17.80;99.90;;;;;;5072562;28;20430;-75
2023/07/28 00:05:49;;;;;;;8.63;4.73;;;17.70;99.90;;;;;;5068026;28;20448;-76
2023/07/28 00:08:34;;;;;;;9.83;4.90;;;17.70;99.90;;;;;;5067894;28;20794;-76
2023/07/28 00:11:20;;;;;;;6.10;4.97;;;17.70;99.90;;;;;;5077330;28;20457;-75
2023/07/28 00:14:05;;;;;;;6.20;5.17;;;17.70;99.90;;;;;;5071126;28;20498;-74
2023/07/28 00:16:52;;;;;;;7.00;5.47;;;17.70;99.90;;;;;;5067754;28;20992;-75
2023/07/28 00:19:38;;;;;;;8.87;4.70;;;17.70;99.90;;;;;;5068241;28;20590;-74
2023/07/28 00:22:23;;;;;;;10.40;5.20;;;17.80;99.90;;;;;;5072563;28;20593;-75
2023/07/28 00:25:09;;;;;;;8.07;4.57;;;17.70;99.90;;;;;;5068533;28;20942;-75
2023/07/28 00:27:55;;;;;;;5.97;4.90;;;17.70;99.90;;;;;;5068465;28;21050;-73
2023/07/28 00:30:41;;;;;;;7.37;4.40;;;17.70;99.90;;;;;;5070568;28;20872;-74
2023/07/28 00:33:28;;;;;;;6.70;4.73;;;17.70;99.90;;;;;;5067204;28;20454;-73
2023/07/28 00:36:13;;;;;;;6.93;5.03;;;17.70;99.90;;;;;;5068252;28;20451;-74
2023/07/28 00:38:59;;;;;;;10.00;5.00;;;17.60;99.90;;;;;;5066492;28;21059;-73
2023/07/28 00:41:44;;;;;;;8.37;4.87;;;17.70;99.90;;;;;;5070919;28;21047;-75
2023/07/28 00:44:30;;;;;;;6.80;5.03;;;17.60;99.90;;;;;;5069467;28;20558;-74
2023/07/28 00:47:16;;;;;;;15.50;5.30;;;17.60;99.90;;;;;;5070100;28;21105;-73
2023/07/28 00:50:03;;;;;;;6.53;5.07;;;17.60;99.90;;;;;;5070573;28;20482;-73
2023/07/28 00:52:49;;;;;;;9.33;4.77;;;17.60;99.90;;;;;;5072715;28;20470;-73
2023/07/28 00:55:34;;;;;;;8.33;4.57;;;17.60;99.90;;;;;;5069966;28;20419;-73
2023/07/28 00:58:20;;;;;;;7.57;4.60;;;17.60;99.90;;;;;;5071817;28;21014;-73
2023/07/28 01:01:06;;;;;;;6.87;4.60;;;17.70;99.90;;;;;;5071089;28;20454;-73
2023/07/28 01:03:52;;;;;;;7.70;5.10;;;17.60;99.90;;;;;;5071732;28;20446;-73
2023/07/28 01:06:48;;;;;;;6.20;4.70;;;17.60;99.90;;;;;;5075288;28;20497;-73
2023/07/28 01:09:42;;;;;;;8.77;4.10;;;17.70;99.90;;;;;;5070276;28;20509;-73
2023/07/28 01:12:28;;;;;;;9.07;4.60;;;17.70;99.90;;;;;;5074184;28;20593;-73
2023/07/28 01:15:14;;;;;;;6.60;5.27;;;17.70;99.90;;;;;;5071677;28;20619;-73
2023/07/28 01:18:00;;;;;;;7.40;4.40;;;17.70;99.90;;;;;;5069456;28;20490;-73
2023/07/28 01:20:47;;;;;;;7.90;4.67;;;17.70;99.90;;;;;;5069815;28;20941;-73
2023/07/28 01:23:42;;;;;;;11.60;5.30;;;17.70;99.90;;;;;;5069552;28;20416;-73
2023/07/28 01:26:32;;;;;;;11.27;4.77;;;17.70;99.90;;;;;;5071944;28;20551;-73
2023/07/28 01:29:20;;;;;;;7.90;5.27;;;17.70;99.90;;;;;;5071835;28;21786;-72
2023/07/28 01:32:06;;;;;;;6.77;5.13;;;17.70;99.90;;;;;;5080846;28;20458;-73
2023/07/28 01:34:51;;;;;;;5.70;4.63;;;17.80;99.90;;;;;;5071673;28;20479;-73
2023/07/28 01:37:36;;;;;;;7.50;5.27;;;17.70;99.90;;;;;;5076914;28;20448;-73
2023/07/28 01:40:22;;;;;;;7.50;5.40;;;17.70;99.90;;;;;;5073322;28;20440;-73
2023/07/28 01:43:09;;;;;;;6.07;4.67;;;17.70;99.90;;;;;;5071024;28;20797;-73
2023/07/28 01:45:55;;;;;;;8.07;4.60;;;17.70;99.90;;;;;;5071585;28;20416;-73
2023/07/28 01:48:40;;;;;;;6.43;4.30;;;17.70;99.90;;;;;;5072481;28;20444;-73
2023/07/28 01:51:25;;;;;;;7.60;5.23;;;17.70;99.90;;;;;;5072574;28;20425;-73
2023/07/28 01:54:11;;;;;;;8.83;4.40;;;17.80;99.90;;;;;;5074441;28;20496;-73
2023/07/28 01:56:57;;;;;;;6.50;4.60;;;17.80;99.90;;;;;;5069331;28;20436;-73
2023/07/28 01:59:44;;;;;;;7.60;4.53;;;17.70;99.90;;;;;;5071049;28;20539;-73
2023/07/28 02:02:29;;;;;;;6.70;4.53;;;17.70;99.90;;;;;;5070526;28;20421;-73
2023/07/28 02:05:15;;;;;;;10.40;5.00;;;17.70;99.90;;;;;;5070261;28;20458;-73
2023/07/28 02:08:00;;;;;;;5.63;4.60;;;17.70;99.90;;;;;;5070030;28;20482;-73
2023/07/28 02:10:46;;;;;;;6.70;4.50;;;17.70;99.90;;;;;;5072367;28;20464;-73
2023/07/28 02:13:31;;;;;;;8.27;4.40;;;17.80;99.90;;;;;;5072828;28;20421;-73
2023/07/28 02:16:18;;;;;;;10.23;4.53;;;17.80;99.90;;;;;;5071376;28;20413;-73
2023/07/28 02:19:04;;;;;;;6.60;3.23;;;17.80;99.90;;;;;;5076047;28;21296;-73
2023/07/28 02:21:49;;;;;;;5.70;3.60;;;17.80;99.90;;;;;;5072669;28;20424;-73
2023/07/28 02:24:35;;;;;;;6.40;3.30;;;17.80;99.90;;;;;;5075158;28;20418;-73
2023/07/28 02:27:20;;;;;;;5.07;3.77;;;17.80;99.90;;;;;;5074464;28;20828;-73
2023/07/28 02:30:07;;;;;;;6.50;4.07;;;17.90;99.90;;;;;;5071596;28;20457;-73
2023/07/28 02:32:54;;;;;;;4.50;3.43;;;17.90;99.90;;;;;;5077591;28;20449;-73
2023/07/28 02:35:39;;;;;;;4.60;3.70;;;17.90;99.90;;;;;;5074183;28;21080;-73
2023/07/28 02:38:25;;;;;;;5.63;3.80;;;17.90;99.90;;;;;;5073263;28;21019;-74
2023/07/28 02:41:11;;;;;;;7.27;3.63;;;17.90;99.90;;;;;;5071038;28;20843;-74
2023/07/28 02:43:57;;;;;;;4.13;3.60;;;17.90;99.90;;;;;;5070235;28;23229;-74
2023/07/28 02:46:42;;;;;;;7.00;3.37;;;17.90;99.90;;;;;;5069325;28;20451;-74
2023/07/28 02:49:29;;;;;;;6.97;4.00;;;17.90;99.90;;;;;;5071275;28;20429;-74
2023/07/28 02:52:15;;;;;;;6.50;3.33;;;17.90;99.90;;;;;;5074024;28;20589;-74
2023/07/28 02:55:00;;;;;;;6.20;3.30;;;17.90;99.90;;;;;;5069581;28;20450;-73
2023/07/28 02:57:46;;;;;;;3.97;2.57;;;17.90;99.90;;;;;;5074124;28;20474;-73
2023/07/28 03:00:31;;;;;;;5.00;3.50;;;17.80;99.90;;;;;;5071887;28;20830;-73
2023/07/28 03:03:17;;;;;;;7.00;3.70;;;17.80;99.90;;;;;;5068228;28;20492;-73
2023/07/28 03:06:04;;;;;;;3.90;3.43;;;17.80;99.90;;;;;;5067357;28;20460;-73
2023/07/28 03:08:50;;;;;;;4.67;3.23;;;17.90;99.90;;;;;;5069587;28;20534;-73
2023/07/28 03:11:35;;;;;;;5.33;2.90;;;17.90;99.90;;;;;;5072299;28;20440;-73
2023/07/28 03:14:21;;;;;;;6.33;3.23;;;17.90;99.90;;;;;;5073711;28;20415;-73
2023/07/28 03:17:06;;;;;;;5.57;3.83;;;17.90;99.90;;;;;;5071894;28;21322;-73
2023/07/28 03:19:52;;;;;;;5.10;3.33;;;17.90;99.90;;;;;;5070504;28;20593;-73
2023/07/28 03:22:39;;;;;;;9.07;3.67;;;18.00;99.90;;;;;;5070885;28;20585;-73
2023/07/28 03:25:25;;;;;;;5.57;3.10;;;17.90;99.90;;;;;;5069021;28;20466;-73
2023/07/28 03:28:10;;;;;;;6.10;3.73;;;17.90;99.90;;;;;;5072083;28;20464;-75
2023/07/28 03:30:56;;;;;;;4.40;3.10;;;17.90;99.90;;;;;;5069924;28;20747;-75
2023/07/28 03:33:41;;;;;;;3.20;2.90;;;17.90;99.90;;;;;;5070624;28;20476;-74
2023/07/28 03:36:27;;;;;;;4.20;3.50;;;17.90;99.90;;;;;;5069039;28;21225;-74
2023/07/28 03:39:14;;;;;;;6.83;3.70;;;17.90;99.90;;;;;;5069471;28;20436;-76
2023/07/28 03:41:59;;;;;;;5.27;3.70;;;17.90;99.90;;;;;;5069901;28;20965;-74
2023/07/28 03:44:45;;;;;;;3.80;3.20;;;17.90;99.90;;;;;;5070676;28;20442;-74
2023/07/28 03:47:31;;;;;;;4.37;3.37;;;17.90;99.90;;;;;;5066253;28;20494;-75
2023/07/28 03:50:16;;;;;;;8.50;3.70;;;17.90;99.90;;;;;;5069269;28;20448;-76
2023/07/28 03:53:02;;;;;;;5.53;3.70;;;17.90;99.90;;;;;;5069620;28;20507;-76
2023/07/28 03:55:49;;;;;;;6.13;3.20;;;17.90;99.90;;;;;;5068426;28;21178;-76
2023/07/28 03:58:34;;;;;;;6.10;3.30;;;17.90;99.90;;;;;;5080380;22;20486;-73
2023/07/28 04:01:21;;;;;;;9.47;3.83;;;17.80;99.90;;;;;;5067456;28;20848;-73
2023/07/28 04:04:07;;;;;;;5.67;3.83;;;17.80;99.90;;;;;;5067029;28;20470;-72
2023/07/28 04:06:53;;;;;;;6.80;3.63;;;17.80;99.90;;;;;;5066944;28;20499;-73
2023/07/28 04:09:38;;;;;;;13.83;6.13;;;17.80;99.90;;;;;;5049763;28;20409;-74
2023/07/28 04:12:25;;;;;;;11.63;5.87;;;17.90;99.90;;;;;;5053707;28;20444;-73
2023/07/28 04:15:11;;;;;;;7.97;4.70;;;17.80;99.90;;;;;;5052173;28;21026;-73
2023/07/28 04:17:56;;;;;;;5.10;3.87;;;17.90;99.90;;;;;;5049645;28;20507;-73
2023/07/28 04:20:42;;;;;;;7.47;4.80;;;17.90;99.90;;;;;;5049251;28;20520;-72
2023/07/28 04:23:27;;;;;;;12.83;4.27;;;17.90;99.90;;;;;;5050610;28;20568;-73
2023/07/28 04:26:13;;;;;;;5.43;4.47;;;17.90;99.90;;;;;;5048791;28;20475;-73
2023/07/28 04:29:00;;;;;;;7.17;4.40;;;18.00;99.90;;;;;;5053842;28;21040;-72
2023/07/28 04:31:46;;;;;;;5.47;4.70;;;17.90;99.90;;;;;;5055665;28;20947;-72
2023/07/28 04:34:33;;;;;;;7.07;3.90;;;17.90;99.90;;;;;;5052462;28;20577;-73
2023/07/28 04:37:19;;;;;;;6.57;5.07;;;18.00;99.90;;;;;;5052498;28;20796;-73
2023/07/28 04:40:06;;;;;;;9.73;4.60;;;18.00;99.90;;;;;;5051335;28;20459;-73
2023/07/28 04:42:53;;;;;;;5.00;4.37;;;18.00;99.90;;;;;;5054645;28;20417;-73
2023/07/28 04:45:40;;;;;;;6.70;4.60;;;18.00;99.90;;;;;;5053641;28;20468;-73
2023/07/28 04:48:25;;;;;;;5.80;4.33;;;18.00;99.90;;;;;;5054057;28;20520;-73
2023/07/28 04:51:11;;;;;;;6.70;4.30;;;17.90;99.90;;;;;;5053138;28;20485;-73
2023/07/28 04:53:57;;;;;;;4.03;3.57;;;18.00;99.90;;;;;;5054584;28;20451;-72
2023/07/28 04:56:42;;;;;;;5.03;3.10;;;17.90;99.90;;;;;;5052426;28;20877;-73
2023/07/28 04:59:27;;;;;;;5.50;3.70;;;17.90;99.90;;;;;;5052179;28;20583;-73
2023/07/28 05:02:14;;;;;;;5.70;4.20;;;18.00;99.90;;;;;;5052835;28;20451;-73
2023/07/28 05:05:00;;;;;;;10.03;4.13;;;18.00;99.90;;;;;;5054077;28;20446;-74
2023/07/28 05:07:46;;;;;;;4.90;3.60;;;18.00;99.90;;;;;;5053903;28;20462;-73
2023/07/28 05:10:31;;;;;;;4.50;3.40;;;18.00;99.90;;;;;;5048723;28;20500;-73
2023/07/28 05:13:17;;;;;;;5.67;3.50;;;18.10;99.90;;;;;;5055306;28;20460;-74
2023/07/28 05:16:02;;;;;;;3.90;2.77;;;18.10;99.90;;;;;;5053953;28;20838;-73
2023/07/28 05:18:49;;;;;;;3.50;2.63;;;18.00;99.90;;;;;;5055329;28;20911;-73
2023/07/28 05:21:35;;;;;;;4.47;3.27;;;18.00;99.90;;;;;;5052835;28;20807;-73
2023/07/28 05:24:20;;;;;;;3.97;2.97;;;18.00;99.90;;;;;;5052266;28;20832;-73
2023/07/28 05:27:06;;;;;;;4.57;2.80;;;18.00;99.90;;;;;;5053667;28;20422;-73
2023/07/28 05:29:51;;;;;;;4.73;2.37;;;18.00;99.90;;;;;;5053674;28;20447;-73
2023/07/28 05:32:37;;;;;;;7.50;2.80;;;18.00;99.90;;;;;;5063818;28;20446;-73
2023/07/28 05:35:24;;;;;;;4.77;2.97;;;18.10;99.90;;;;;;5065370;28;20440;-73
2023/07/28 05:38:09;;;;;;;2.73;2.37;;;18.10;99.90;;;;;;5053554;28;20998;-73
2023/07/28 05:41:00;;;;;;;3.73;2.90;;;18.20;99.90;;;;;;5051690;28;20542;-73
2023/07/28 05:43:45;;;;;;;3.00;2.40;;;18.20;99.90;;;;;;5053476;28;20452;-73
2023/07/28 05:46:31;;;;;;;5.67;2.97;;;18.30;99.90;;;;;;5053838;28;20472;-73
2023/07/28 05:49:16;;;;;;;3.93;2.77;;;18.20;99.90;;;;;;5051639;28;21032;-73
2023/07/28 05:52:04;;;;;;;4.13;2.73;;;18.20;99.90;;;;;;5054940;28;20417;-73
2023/07/28 05:54:49;;;;;;;4.37;2.80;;;18.20;99.90;;;;;;5053403;28;20594;-73
2023/07/28 05:57:35;;;;;;;2.30;1.93;;;18.20;99.90;;;;;;5053400;28;20479;-73
2023/07/28 06:00:21;;;;;;;3.60;2.63;;;18.20;99.90;;;;;;5055459;28;20483;-73
2023/07/28 06:03:07;;;;;;;7.30;4.07;;;18.20;99.90;;;;;;5054055;28;20554;-72
2023/07/28 06:05:53;;;;;;;4.10;2.87;;;18.10;99.90;;;;;;5053551;28;21013;-72
2023/07/28 06:08:40;;;;;;;3.63;2.50;;;18.20;99.90;;;;;;5053318;28;20881;-73
2023/07/28 06:11:26;;;;;;;4.13;2.63;;;18.20;99.90;;;;;;5051705;28;20420;-73
2023/07/28 06:14:11;;;;;;;3.77;2.90;;;18.30;99.90;;;;;;5054134;28;21253;-73
2023/07/28 06:16:57;;;;;;;3.43;2.53;;;18.20;99.90;;;;;;5054421;28;20474;-73
2023/07/28 06:19:42;;;;;;;5.50;3.07;;;18.30;99.90;;;;;;5051803;28;20408;-73
2023/07/28 06:22:28;;;;;;;3.20;2.77;;;18.30;99.90;;;;;;5051048;28;21059;-73
2023/07/28 06:25:14;;;;;;;4.10;2.43;;;18.30;99.90;;;;;;5050327;28;20538;-74
2023/07/28 06:28:00;;;;;;;3.10;2.40;;;18.20;99.90;;;;;;5052698;28;20950;-73
2023/07/28 06:30:45;;;;;;;2.73;1.97;;;18.30;99.90;;;;;;5055071;28;20454;-73
2023/07/28 06:33:31;;;;;;;2.70;2.43;;;18.30;99.90;;;;;;5054830;28;20538;-73
2023/07/28 06:36:17;;;;;;;4.60;2.93;;;18.30;99.90;;;;;;5054824;28;20632;-73
2023/07/28 06:39:03;;;;;;;3.80;3.30;;;18.20;99.90;;;;;;5049613;28;20467;-73
2023/07/28 06:41:50;;;;;;;8.63;3.20;;;18.20;99.90;;;;;;5046685;28;20489;-73
2023/07/28 06:44:35;;;;;;;4.17;3.10;;;18.20;99.90;;;;;;5049406;28;20421;-72
2023/07/28 06:47:21;;;;;;;5.60;3.50;;;18.20;99.90;;;;;;5049411;28;20601;-73
2023/07/28 06:50:07;;;;;;;4.77;3.77;;;18.20;99.90;;;;;;5046258;28;20467;-73
2023/07/28 06:52:52;;;;;;;5.23;3.33;;;18.20;99.90;;;;;;5047232;28;21007;-73
2023/07/28 06:55:39;;;;;;;4.77;3.17;;;18.20;99.90;;;;;;5056857;28;20440;-73
2023/07/28 06:58:25;;;;;;;6.07;4.30;;;18.20;99.90;;;;;;5048424;28;20596;-73
2023/07/28 07:01:11;;;;;;;5.00;4.30;;;18.20;99.90;;;;;;5049998;28;20483;-73
2023/07/28 07:03:56;;;;;;;8.10;4.90;;;18.30;99.90;;;;;;5054779;28;20502;-74
2023/07/28 07:06:42;;;;;;;4.93;4.43;;;18.30;99.90;;;;;;5053257;28;20418;-74
2023/07/28 07:09:27;;;;;;;4.30;3.90;;;18.30;99.90;;;;;;5051142;28;20414;-73
2023/07/28 07:12:13;;;;;;;4.83;3.50;;;18.30;99.90;;;;;;5052302;28;20962;-74
2023/07/28 07:15:00;;;;;;;4.17;3.77;;;18.30;99.90;;;;;;5052252;28;20448;-75
2023/07/28 07:17:46;;;;;;;6.40;4.70;;;18.30;99.90;;;;;;5046636;28;20470;-73
2023/07/28 07:20:34;;;;;;;4.50;3.40;;;18.30;99.90;;;;;;5050091;28;20822;-73
2023/07/28 07:23:20;;;;;;;10.13;4.00;;;18.30;99.90;;;;;;5050951;28;20413;-72
2023/07/28 07:26:05;;;;;;;4.40;4.00;;;18.40;99.90;;;;;;5043957;28;21129;-73
2023/07/28 07:28:51;;;;;;;11.53;3.80;;;18.30;99.90;;;;;;5051150;28;20554;-74
2023/07/28 07:31:38;;;;;;;4.00;3.60;;;18.30;99.90;;;;;;5054372;28;20554;-73
2023/07/28 07:34:24;;;;;;;8.03;3.70;;;18.40;99.90;;;;;;5057997;28;20418;-73
2023/07/28 07:37:10;;;;;;;6.40;4.57;;;18.40;99.90;;;;;;5054560;28;22515;-73
2023/07/28 07:39:56;;;;;;;5.47;4.83;;;18.40;99.90;;;;;;5052040;28;20443;-73
2023/07/28 07:42:43;;;;;;;5.00;4.50;;;18.40;99.90;;;;;;5050762;28;20597;-73
2023/07/28 07:45:28;;;;;;;5.60;5.00;;;18.50;99.90;;;;;;5053674;28;20493;-73
2023/07/28 07:48:15;;;;;;;5.90;5.30;;;18.50;99.90;;;;;;5050794;28;20466;-73
2023/07/28 07:51:01;;;;;;;7.10;4.77;;;18.50;99.90;;;;;;5047129;28;20995;-73
2023/07/28 07:53:46;;;;;;;5.80;5.27;;;18.60;99.90;;;;;;5051355;28;20480;-73
2023/07/28 07:56:32;;;;;;;5.77;5.27;;;18.60;99.90;;;;;;5048500;28;20518;-73
2023/07/28 07:59:17;;;;;;;7.00;5.73;;;18.60;99.90;;;;;;5052151;28;20486;-73
2023/07/28 08:02:04;;;;;;;8.47;6.30;;;18.70;99.90;;;;;;5053052;28;20484;-73
2023/07/28 08:04:53;;;;;;;6.40;5.80;;;18.70;99.90;;;;;;5051563;28;21127;-73
2023/07/28 08:07:38;;;;;;;7.53;6.70;;;18.80;99.90;;;;;;5049527;28;20572;-73
2023/07/28 08:10:24;;;;;;;7.83;6.27;;;18.80;99.90;;;;;;5049266;28;20445;-72
2023/07/28 08:13:09;;;;;;;5.83;5.23;;;18.90;99.90;;;;;;5049230;28;20501;-73
2023/07/28 08:15:55;;;;;;;8.93;4.60;;;18.90;99.90;;;;;;5049530;28;20470;-74
2023/07/28 08:18:41;;;;;;;4.00;3.60;;;18.90;99.90;;;;;;5050837;28;20941;-73
2023/07/28 08:21:27;;;;;;;6.47;4.13;;;18.90;99.90;;;;;;5047980;28;20460;-73
2023/07/28 08:24:13;;;;;;;4.50;3.47;;;18.90;99.90;;;;;;5050772;28;20842;-74
2023/07/28 08:26:58;;;;;;;5.67;3.97;;;19.00;99.90;;;;;;5048228;28;21945;-74
2023/07/28 08:29:44;;;;;;;4.97;3.40;;;18.90;99.90;;;;;;5052332;28;20590;-73
2023/07/28 08:32:30;;;;;;;3.77;3.00;;;18.90;99.90;;;;;;5053831;28;20480;-73
2023/07/28 08:35:16;;;;;;;4.30;3.23;;;18.90;99.90;;;;;;5048499;28;20413;-73
2023/07/28 08:38:03;;;;;;;3.70;3.07;;;19.00;99.90;;;;;;5051842;28;20554;-73
2023/07/28 08:40:48;;;;;;;3.73;3.00;;;19.00;99.90;;;;;;5059709;28;20528;-73
2023/07/28 08:43:34;;;;;;;5.57;3.60;;;19.00;99.90;;;;;;5049485;28;20995;-73
2023/07/28 08:46:20;;;;;;;6.27;4.03;;;19.00;99.90;;;;;;5047808;28;20459;-73
2023/07/28 08:49:06;;;;;;;4.60;3.57;;;19.00;99.90;;;;;;5050137;28;20827;-74
2023/07/28 08:51:53;;;;;;;4.20;3.10;;;19.00;99.90;;;;;;5048717;28;20413;-74
2023/07/28 08:54:39;;;;;;;4.77;3.53;;;19.00;99.90;;;;;;5047421;28;20446;-73
2023/07/28 08:57:25;;;;;;;4.50;2.70;;;19.10;99.90;;;;;;5048569;28;20438;-73
2023/07/28 09:00:13;;;;;;;3.47;2.50;;;19.10;99.90;;;;;;5047761;28;20429;-72
2023/07/28 09:02:59;;;;;;;8.20;2.77;;;19.10;99.90;;;;;;5047365;28;20456;-72
2023/07/28 09:05:46;;;;;;;3.70;2.70;;;19.10;99.90;;;;;;5046807;28;20425;-73
2023/07/28 09:08:32;;;;;;;2.60;2.33;;;19.20;99.90;;;;;;5049535;28;21127;-73
2023/07/28 09:11:19;;;;;;;3.60;2.60;;;19.20;99.90;;;;;;5044428;28;20422;-72
2023/07/28 09:14:13;;;;;;;3.33;2.70;;;19.10;99.90;;;;;;5055070;28;20470;-73
2023/07/28 09:17:09;;;;;;;3.80;2.83;;;19.10;99.90;;;;;;5054938;28;20498;-72
2023/07/28 09:19:56;;;;;;;3.90;2.70;;;19.20;99.90;;;;;;5053879;28;20446;-71
2023/07/28 09:22:41;;;;;;;4.93;4.10;;;19.20;99.90;;;;;;5056750;28;20510;-71
2023/07/28 09:28:39;;;;;;;3.50;2.97;;;19.20;99.90;;;;;;5056803;28;20466;-72
2023/07/28 09:31:30;;;;;;;7.60;3.20;;;19.20;99.90;;;;;;5058731;28;20455;-73
2023/07/28 09:34:26;;;;;;;5.10;2.70;;;19.20;99.90;;;;;;5057131;28;20418;-72
2023/07/28 09:37:13;;;;;;;3.90;3.50;;;19.30;99.90;;;;;;5058492;28;20418;-72
2023/07/28 09:39:58;;;;;;;5.30;2.83;;;19.30;99.90;;;;;;5056804;28;20483;-73
2023/07/28 09:42:49;;;;;;;5.40;2.90;;;19.30;99.90;;;;;;5053868;28;20598;-72
2023/07/28 09:45:36;;;;;;;3.67;2.93;;;19.30;99.90;;;;;;5058734;28;20451;-73
2023/07/28 09:48:23;;;;;;;6.40;3.67;;;19.40;99.90;;;;;;5058411;28;20961;-72
2023/07/28 09:51:13;;;;;;;6.00;4.60;;;19.50;99.90;;;;;;5051306;28;20957;-72
2023/07/28 09:54:05;;;;;;;2.93;2.60;;;19.50;99.90;;;;;;5051731;28;20441;-72
2023/07/28 09:56:51;;;;;;;4.80;3.23;;;19.60;99.90;;;;;;5051441;28;20893;-72
2023/07/28 09:59:40;;;;;;;7.27;3.77;;;19.50;99.90;;;;;;5084330;22;20543;-70
2023/07/28 10:02:27;;;;;;;5.20;3.27;;;19.60;99.90;;;;;;5075947;28;20504;-71
2023/07/28 10:05:15;;;;;;;4.57;3.60;;;19.50;99.90;;;;;;5074518;28;21119;-72
2023/07/28 10:08:01;;;;;;;3.77;3.07;;;19.50;99.90;;;;;;5082049;28;20594;-72
2023/07/28 10:10:48;;;;;;;3.50;2.57;;;19.50;99.90;;;;;;5076966;28;20450;-71
2023/07/28 10:13:41;;;;;;;4.80;3.57;;;19.60;99.90;;;;;;5077395;28;20464;-71
2023/07/28 10:16:39;;;;;;;3.43;3.07;;;19.70;99.90;;;;;;5069477;28;20768;-71
2023/07/28 10:19:27;;;;;;;4.73;3.30;;;19.80;99.90;;;;;;5074564;28;20902;-72
2023/07/28 10:22:13;;;;;;;5.00;3.20;;;19.90;99.90;;;;;;5073309;28;21141;-71
2023/07/28 10:25:03;;;;;;;3.80;3.33;;;20.00;99.90;;;;;;5074582;28;20812;-71
2023/07/28 10:27:52;;;;;;;10.10;3.43;;;20.10;99.90;;;;;;5070040;28;20564;-71
2023/07/28 10:30:39;;;;;;;3.67;3.30;;;20.00;99.90;;;;;;5075412;28;20493;-71
2023/07/28 10:33:30;;;;;;;8.50;4.33;;;20.00;99.90;;;;;;5076613;28;20978;-72
2023/07/28 10:36:33;;;;;;;4.90;3.53;;;19.90;99.90;;;;;;5076505;28;20684;-71
2023/07/28 10:39:18;;;;;;;3.73;3.30;;;20.00;99.90;;;;;;5077397;28;20540;-71
2023/07/28 10:42:06;;;;;;;4.10;3.70;;;20.10;99.90;;;;;;5077427;28;20592;-72
2023/07/28 10:44:51;;;;;;;4.30;3.40;;;20.10;99.90;;;;;;5071962;28;20491;-72
2023/07/28 10:47:37;;;;;;;10.27;4.13;;;20.10;99.90;;;;;;5071630;28;20423;-71
2023/07/28 10:50:24;;;;;;;3.43;2.93;;;20.10;99.90;;;;;;5073075;28;20429;-74
2023/07/28 10:53:12;;;;;;;8.53;3.57;;;20.10;99.90;;;;;;5072560;28;20425;-72
2023/07/28 10:55:57;;;;;;;4.83;3.17;;;20.10;99.90;;;;;;5071515;28;20457;-71
2023/07/28 10:58:43;;;;;;;7.20;3.30;;;20.10;99.90;;;;;;5072649;28;20651;-71
2023/07/28 11:01:34;;;;;;;5.70;3.43;;;19.90;99.90;;;;;;5069906;28;21022;-72
2023/07/28 11:04:20;;;;;;;3.30;2.87;;;19.90;99.90;;;;;;5071795;28;20451;-72
2023/07/28 11:07:07;;;;;;;3.50;3.07;;;19.90;99.90;;;;;;5072780;28;20482;-72
2023/07/28 11:09:54;;;;;;;3.90;3.27;;;19.80;99.90;;;;;;5073891;28;21180;-72
2023/07/28 11:12:42;;;;;;;4.57;3.30;;;19.80;99.90;;;;;;5071164;28;21000;-72
2023/07/28 11:15:27;;;;;;;6.23;4.70;;;19.80;99.90;;;;;;5073084;28;20449;-72
2023/07/28 11:18:16;;;;;;;6.43;4.60;;;19.90;99.90;;;;;;5070632;28;20477;-72
2023/07/28 11:21:02;;;;;;;7.50;3.10;;;20.00;99.90;;;;;;5069518;28;21275;-72
2023/07/28 11:23:48;;;;;;;7.70;4.67;;;20.10;99.90;;;;;;5069611;28;20781;-71
2023/07/28 11:26:36;;;;;;;4.03;3.43;;;20.10;99.90;;;;;;5071890;28;20867;-71
2023/07/28 11:29:21;;;;;;;5.30;3.17;;;20.30;99.90;;;;;;5074932;28;20515;-72
2023/07/28 11:32:09;;;;;;;4.37;3.60;;;20.30;99.90;;;;;;5080049;28;20433;-71
2023/07/28 11:34:55;;;;;;;5.40;4.07;;;20.50;99.90;;;;;;5066541;28;20451;-71
2023/07/28 11:37:42;;;;;;;3.70;3.03;;;20.60;99.90;;;;;;5071093;28;20461;-71
2023/07/28 11:40:27;;;;;;;4.90;2.67;;;20.50;99.90;;;;;;5078947;28;20438;-72
2023/07/28 11:43:14;;;;;;;4.40;3.20;;;20.50;99.90;;;;;;5069909;28;20477;-72
2023/07/28 11:46:00;;;;;;;3.93;2.93;;;20.50;99.90;;;;;;5070646;28;20462;-72
2023/07/28 11:48:45;;;;;;;6.10;3.00;;;20.50;99.90;;;;;;5078298;28;21055;-72
2023/07/28 11:51:31;;;;;;;3.27;2.63;;;20.50;99.90;;;;;;5071548;28;20979;-71
2023/07/28 11:54:21;;;;;;;3.97;3.33;;;20.50;99.90;;;;;;5072833;28;20516;-71
2023/07/28 11:57:09;;;;;;;3.67;3.30;;;20.50;99.90;;;;;;5070269;28;20446;-71
2023/07/28 11:59:56;;;;;;;5.10;3.20;;;20.50;99.90;;;;;;5066451;28;20484;-72
2023/07/28 12:02:41;;;;;;;4.07;3.07;;;20.50;99.90;;;;;;5071217;28;20484;-70
2023/07/28 12:05:27;;;;;;;4.90;2.90;;;20.50;99.90;;;;;;5071286;28;20543;-70
2023/07/28 12:08:13;;;;;;;6.53;3.67;;;20.50;99.90;;;;;;5072210;28;20452;-72
2023/07/28 12:10:58;;;;;;;4.80;3.67;;;20.50;99.90;;;;;;5069417;28;20416;-71
2023/07/28 12:13:50;;;;;;;5.43;4.30;;;20.50;99.90;;;;;;5070211;28;20476;-72
2023/07/28 12:16:41;;;;;;;4.60;3.23;;;20.50;99.90;;;;;;5070377;28;20453;-72
2023/07/28 12:19:27;;;;;;;3.93;3.50;;;20.60;99.90;;;;;;5068872;28;20463;-72
2023/07/28 12:22:13;;;;;;;5.00;4.50;;;20.60;99.90;;;;;;5071809;28;20966;-72
2023/07/28 12:24:59;;;;;;;3.57;3.27;;;20.60;99.90;;;;;;5073741;28;20425;-73
2023/07/28 12:27:45;;;;;;;6.63;3.83;;;20.60;99.90;;;;;;5073238;28;20706;-70
2023/07/28 12:30:30;;;;;;;6.60;3.47;;;20.50;99.90;;;;;;5070019;28;20475;-70
2023/07/28 12:33:17;;;;;;;6.83;3.00;;;20.60;99.90;;;;;;5067108;28;20539;-69
2023/07/28 12:36:02;;;;;;;7.80;4.37;;;20.50;99.90;;;;;;5299104;22;20554;-73
2023/07/28 12:38:48;;;;;;;3.90;3.50;;;20.40;99.90;;;;;;5072680;28;20415;-73
2023/07/28 12:41:34;;;;;;;4.50;3.80;;;20.30;99.90;;;;;;5072957;28;20435;-73
2023/07/28 12:44:20;;;;;;;7.27;4.10;;;20.30;99.90;;;;;;5072568;28;21532;-72
2023/07/28 12:47:06;;;;;;;5.13;3.53;;;20.20;99.90;;;;;;5076750;28;20472;-72
2023/07/28 12:49:54;;;;;;;4.40;4.00;;;20.10;99.90;;;;;;5086768;22;20827;-70
2023/07/28 12:52:39;;;;;;;10.23;3.90;;;20.20;99.90;;;;;;5059421;28;20565;-71
2023/07/28 12:55:27;;;;;;;6.70;3.90;;;20.10;99.90;;;;;;5054667;28;20451;-70
2023/07/28 12:58:12;;;;;;;4.90;3.73;;;20.10;99.90;;;;;;5054838;28;21046;-71
2023/07/28 13:00:59;;;;;;;4.17;3.40;;;20.00;99.90;;;;;;5052435;28;21088;-71
2023/07/28 13:03:44;;;;;;;4.30;3.67;;;20.00;99.90;;;;;;5060929;28;20472;-71
2023/07/28 13:06:31;;;;;;;3.53;3.23;;;19.90;99.90;;;;;;5055401;28;20455;-70
2023/07/28 13:09:16;;;;;;;5.23;3.90;;;19.90;99.90;;;;;;5053077;28;20822;-70
2023/07/28 13:12:02;;;;;;;5.87;4.10;;;19.90;99.90;;;;;;5053957;28;20528;-70
2023/07/28 13:14:47;;;;;;;5.23;3.70;;;19.90;99.90;;;;;;5051766;28;20972;-71
2023/07/28 13:17:33;;;;;;;4.10;2.73;;;19.90;99.90;;;;;;5054268;28;20862;-70
2023/07/28 13:20:18;;;;;;;2.90;2.23;;;19.90;99.90;;;;;;5050701;28;20584;-70
2023/07/28 13:23:05;;;;;;;6.27;2.20;;;19.80;99.90;;;;;;5051909;28;20451;-71
2023/07/28 13:25:51;;;;;;;3.00;2.00;;;19.90;99.90;;;;;;5051580;28;20447;-70
2023/07/28 13:28:37;;;;;;;2.80;2.00;;;19.90;99.90;;;;;;5052038;28;20545;-71
2023/07/28 13:31:22;;;;;;;4.67;1.80;;;19.90;99.90;;;;;;5056317;28;20501;-70
2023/07/28 13:34:08;;;;;;;13.73;2.37;;;19.90;99.90;;;;;;5053687;28;20470;-70
2023/07/28 13:36:53;;;;;;;2.50;2.10;;;19.90;99.90;;;;;;5049518;28;20456;-70
2023/07/28 13:39:40;;;;;;;3.67;2.30;;;20.00;99.90;;;;;;5059769;28;20504;-71
2023/07/28 13:42:25;;;;;;;2.60;2.10;;;19.90;99.90;;;;;;5056113;28;20446;-71
2023/07/28 13:45:11;;;;;;;3.13;2.47;;;19.90;99.90;;;;;;5050670;28;20426;-71
2023/07/28 13:47:57;;;;;;;3.40;2.30;;;19.90;99.90;;;;;;5053024;28;20509;-71
2023/07/28 13:50:42;;;;;;;9.63;2.33;;;19.90;99.90;;;;;;5051503;28;22583;-69
2023/07/28 13:53:28;;;;;;;4.07;2.73;;;19.90;99.90;;;;;;5053252;28;21076;-70
2023/07/28 13:56:15;;;;;;;3.23;2.43;;;19.90;99.90;;;;;;5049580;28;20559;-71
2023/07/28 13:59:00;;;;;;;3.00;2.60;;;19.90;99.90;;;;;;5046698;28;20462;-71
2023/07/28 14:01:46;;;;;;;3.37;1.90;;;19.90;99.90;;;;;;5051529;28;21298;-70
2023/07/28 14:04:32;;;;;;;2.70;2.10;;;19.80;99.90;;;;;;5051314;28;20477;-71
2023/07/28 14:07:17;;;;;;;3.27;2.03;;;19.80;99.90;;;;;;5054960;28;20451;-71
2023/07/28 14:10:03;;;;;;;3.87;2.30;;;19.70;99.90;;;;;;5054916;28;20526;-70
2023/07/28 14:12:50;;;;;;;3.17;2.10;;;19.70;99.90;;;;;;5054305;28;20558;-71
2023/07/28 14:15:35;;;;;;;2.47;2.07;;;19.70;99.90;;;;;;5051265;28;20971;-71
2023/07/28 14:18:21;;;;;;;3.23;2.20;;;19.70;99.90;;;;;;5054965;28;20526;-70
2023/07/28 14:21:06;;;;;;;2.90;2.33;;;19.70;99.90;;;;;;5052243;28;20578;-70
2023/07/28 14:23:52;;;;;;;5.80;2.17;;;19.70;99.90;;;;;;5054632;28;20487;-71
2023/07/28 14:26:39;;;;;;;5.47;2.33;;;19.60;99.90;;;;;;5051489;28;20584;-71